createdAt,value
2017-11-22T00:01:36.502Z,3.22
2017-11-22T00:04:04.029Z,4.90
2017-11-22T00:06:31.601Z,5.95
2017-11-22T00:08:59.165Z,6.37
2017-11-22T00:11:26.733Z,3.15
2017-11-22T00:13:54.293Z,3.53
2017-11-22T00:16:21.854Z,3.50
2017-11-22T00:18:49.432Z,4.05
2017-11-22T00:21:16.967Z,5.97
2017-11-22T00:23:44.546Z,6.70
2017-11-22T00:26:12.110Z,7.18
2017-11-22T00:28:39.675Z,2.92
2017-11-22T00:31:07.212Z,2.92
2017-11-22T00:33:34.785Z,2.75
2017-11-22T00:36:02.363Z,2.62
2017-11-22T00:38:29.889Z,3.25
2017-11-22T00:40:57.515Z,3.22
2017-11-22T00:43:25.084Z,4.90
2017-11-22T00:45:52.655Z,3.22
2017-11-22T00:48:20.200Z,3.40
2017-11-22T00:50:47.726Z,6.60
2017-11-22T00:53:16.066Z,3.85
2017-11-22T00:55:43.607Z,3.55
2017-11-22T00:58:11.177Z,5.85
2017-11-22T01:00:38.661Z,3.60
2017-11-22T01:03:06.229Z,5.37
2017-11-22T01:05:33.838Z,5.68
2017-11-22T01:08:01.397Z,5.97
2017-11-22T01:10:28.918Z,5.25
2017-11-22T01:12:57.220Z,5.45
2017-11-22T01:15:24.788Z,5.93
2017-11-22T01:17:52.351Z,6.80
2017-11-22T01:20:19.957Z,7.05
2017-11-22T01:22:47.532Z,11.00
2017-11-22T01:25:15.070Z,7.55
2017-11-22T01:27:42.639Z,7.10
2017-11-22T01:30:10.215Z,7.50
2017-11-22T01:32:37.753Z,7.22
2017-11-22T01:35:05.303Z,7.95
2017-11-22T01:37:32.879Z,11.85
2017-11-22T01:40:00.467Z,8.10
2017-11-22T01:42:28.044Z,9.70
2017-11-22T01:44:55.665Z,8.18
2017-11-22T01:47:23.205Z,11.95
2017-11-22T01:49:50.777Z,10.52
2017-11-22T01:52:18.364Z,14.18
2017-11-22T01:54:45.905Z,11.02
2017-11-22T01:57:13.476Z,8.50
2017-11-22T01:59:41.790Z,10.88
2017-11-22T02:02:09.353Z,9.00
2017-11-22T02:04:36.915Z,9.20
2017-11-22T02:07:04.490Z,7.37
2017-11-22T02:09:32.062Z,13.35
2017-11-22T02:11:59.629Z,10.07
2017-11-22T02:14:27.191Z,9.15
2017-11-22T02:16:54.762Z,8.70
2017-11-22T02:19:22.327Z,10.70
2017-11-22T02:21:49.896Z,9.82
2017-11-22T02:24:17.464Z,8.43
2017-11-22T02:26:45.038Z,9.40
2017-11-22T02:29:12.600Z,10.45
2017-11-22T02:31:40.184Z,9.98
2017-11-22T02:34:07.769Z,8.15
2017-11-22T02:36:35.340Z,8.07
2017-11-22T02:39:02.925Z,9.30
2017-11-22T02:41:31.211Z,10.20
2017-11-22T02:43:58.823Z,8.25
2017-11-22T02:46:26.382Z,8.55
2017-11-22T02:48:53.933Z,12.23
2017-11-22T02:51:21.474Z,9.63
2017-11-22T02:53:49.082Z,10.50
2017-11-22T02:56:16.675Z,8.82
2017-11-22T02:58:45.009Z,12.80
2017-11-22T03:01:12.550Z,7.60
2017-11-22T03:03:40.118Z,8.88
2017-11-22T03:06:07.692Z,8.15
2017-11-22T03:08:35.228Z,9.52
2017-11-22T03:11:02.765Z,10.00
2017-11-22T03:13:30.337Z,9.98
2017-11-22T03:15:57.898Z,8.45
2017-11-22T03:18:25.438Z,10.77
2017-11-22T03:20:53.025Z,11.27
2017-11-22T03:23:20.585Z,7.93
2017-11-22T03:25:48.114Z,8.88
2017-11-22T03:28:15.706Z,10.50
2017-11-22T03:30:43.277Z,11.30
2017-11-22T03:33:10.872Z,7.57
2017-11-22T03:35:38.463Z,10.65
2017-11-22T03:38:06.025Z,9.07
2017-11-22T03:40:33.609Z,10.75
2017-11-22T03:43:01.196Z,6.62
2017-11-22T03:45:28.778Z,10.10
2017-11-22T03:47:56.372Z,10.80
2017-11-22T03:50:29.615Z,6.20
2017-11-22T03:53:02.802Z,6.57
2017-11-22T03:55:30.367Z,6.10
2017-11-22T03:57:58.867Z,6.82
2017-11-22T04:00:30.358Z,7.40
2017-11-22T04:03:03.526Z,6.90
2017-11-22T04:05:32.918Z,12.70
2017-11-22T04:08:00.478Z,7.20
2017-11-22T04:10:28.042Z,6.70
2017-11-22T04:12:55.618Z,5.65
2017-11-22T04:15:23.193Z,7.78
2017-11-22T04:17:54.710Z,5.10
2017-11-22T04:20:28.693Z,7.65
2017-11-22T04:22:56.296Z,6.00
2017-11-22T04:25:23.823Z,7.78
2017-11-22T04:27:52.163Z,7.65
2017-11-22T04:30:19.730Z,6.25
2017-11-22T04:32:47.291Z,7.72
2017-11-22T04:35:14.905Z,6.95
2017-11-22T04:37:43.242Z,7.87
2017-11-22T04:40:10.800Z,7.03
2017-11-22T04:42:38.361Z,7.62
2017-11-22T04:45:05.910Z,6.78
2017-11-22T04:47:33.517Z,6.97
2017-11-22T04:50:01.095Z,8.18
2017-11-22T04:52:28.662Z,10.82
2017-11-22T04:54:56.187Z,10.57
2017-11-22T04:57:23.781Z,10.00
2017-11-22T04:59:51.316Z,11.18
2017-11-22T05:02:19.678Z,14.80
2017-11-22T05:04:47.249Z,13.95
2017-11-22T05:07:14.847Z,13.23
2017-11-22T05:09:42.629Z,17.62
2017-11-22T05:12:10.201Z,19.67
2017-11-22T05:14:37.754Z,16.05
2017-11-22T05:17:11.981Z,12.40
2017-11-22T05:19:39.550Z,14.10
2017-11-22T05:22:07.043Z,14.30
2017-11-22T05:24:34.617Z,14.48
2017-11-22T05:27:02.183Z,11.10
2017-11-22T05:29:30.066Z,17.05
2017-11-22T05:31:57.634Z,14.07
2017-11-22T05:34:25.198Z,13.70
2017-11-22T05:36:52.761Z,12.10
2017-11-22T05:39:20.325Z,10.48
2017-11-22T05:41:47.892Z,8.98
2017-11-22T05:44:15.459Z,9.45
2017-11-22T05:46:43.056Z,12.43
2017-11-22T05:49:10.622Z,14.18
2017-11-22T05:51:38.194Z,11.77
2017-11-22T05:54:05.764Z,11.25
2017-11-22T05:56:33.311Z,9.40
2017-11-22T05:59:00.895Z,11.50
2017-11-22T06:01:28.427Z,11.32
2017-11-22T06:03:55.960Z,11.95
2017-11-22T06:06:24.261Z,12.07
2017-11-22T06:08:51.830Z,14.20
2017-11-22T06:11:19.399Z,12.13
2017-11-22T06:13:46.965Z,10.55
2017-11-22T06:16:14.534Z,14.30
2017-11-22T06:18:42.152Z,14.63
2017-11-22T06:21:09.740Z,14.57
2017-11-22T06:23:37.312Z,15.63
2017-11-22T06:26:06.800Z,14.55
2017-11-22T06:28:34.375Z,13.52
2017-11-22T06:31:01.943Z,25.40
2017-11-22T06:33:29.469Z,18.70
2017-11-22T06:35:57.044Z,17.98
2017-11-22T06:38:24.627Z,16.17
2017-11-22T06:40:52.195Z,15.23
2017-11-22T06:43:20.554Z,14.63
2017-11-22T06:45:48.194Z,14.57
2017-11-22T06:48:15.771Z,17.33
2017-11-22T06:50:43.293Z,15.20
2017-11-22T06:53:10.881Z,14.20
2017-11-22T06:55:38.446Z,12.73
2017-11-22T06:58:06.013Z,14.55
2017-11-22T07:00:33.590Z,15.88
2017-11-22T07:03:01.126Z,16.77
2017-11-22T07:05:28.707Z,21.42
2017-11-22T07:07:56.271Z,16.90
2017-11-22T07:10:23.850Z,21.77
2017-11-22T07:12:51.451Z,20.23
2017-11-22T07:15:19.020Z,22.20
2017-11-22T07:17:50.446Z,21.45
2017-11-22T07:20:18.013Z,24.58
2017-11-22T07:22:45.582Z,23.67
2017-11-22T07:25:13.110Z,21.58
2017-11-22T07:27:41.459Z,22.10
2017-11-22T07:30:08.997Z,26.15
2017-11-22T07:32:36.569Z,25.08
2017-11-22T07:35:04.145Z,26.30
2017-11-22T07:37:36.524Z,33.35
2017-11-22T07:40:04.065Z,28.23
2017-11-22T07:42:31.635Z,26.50
2017-11-22T07:44:59.388Z,26.87
2017-11-22T07:47:26.966Z,31.67
2017-11-22T07:49:54.537Z,57.85
2017-11-22T07:52:22.929Z,25.65
2017-11-22T07:54:50.497Z,27.80
2017-11-22T07:57:18.065Z,25.48
2017-11-22T07:59:45.630Z,26.02
2017-11-22T08:02:13.195Z,25.33
2017-11-22T08:04:40.735Z,28.20
2017-11-22T08:07:08.318Z,33.08
2017-11-22T08:09:35.871Z,30.55
2017-11-22T08:12:03.494Z,32.85
2017-11-22T08:14:31.069Z,30.48
2017-11-22T08:17:01.141Z,32.05
2017-11-22T08:19:28.714Z,26.75
2017-11-22T08:21:56.286Z,41.00
2017-11-22T08:24:23.848Z,32.70
2017-11-22T08:26:51.414Z,62.03
2017-11-22T08:29:18.986Z,26.33
2017-11-22T08:31:47.284Z,24.27
2017-11-22T08:34:14.861Z,29.50
2017-11-22T08:36:42.390Z,29.45
2017-11-22T08:39:09.974Z,27.75
2017-11-22T08:41:37.542Z,38.70
2017-11-22T08:44:07.054Z,44.53
2017-11-22T08:46:34.636Z,68.87
2017-11-22T08:49:02.201Z,42.30
2017-11-22T08:51:29.813Z,74.22
2017-11-22T08:53:57.387Z,37.53
2017-11-22T08:56:30.725Z,34.67
2017-11-22T08:58:58.319Z,47.90
2017-11-22T09:01:25.887Z,28.95
2017-11-22T09:03:53.459Z,29.80
2017-11-22T09:06:26.568Z,36.08
2017-11-22T09:08:54.969Z,29.48
2017-11-22T09:11:22.551Z,30.33
2017-11-22T09:13:50.087Z,29.25
2017-11-22T09:16:17.654Z,30.08
2017-11-22T09:19:00.030Z,25.55
2017-11-22T09:21:27.626Z,26.50
2017-11-22T09:23:55.229Z,18.10
2017-11-22T09:26:22.771Z,20.20
2017-11-22T09:28:50.345Z,16.12
2017-11-22T09:31:24.440Z,25.70
2017-11-22T09:33:58.322Z,18.85
2017-11-22T09:36:27.623Z,14.10
2017-11-22T09:38:55.154Z,14.35
2017-11-22T09:41:22.738Z,15.55
2017-11-22T09:43:50.328Z,13.18
2017-11-22T09:46:18.410Z,13.43
2017-11-22T09:48:46.043Z,18.90
2017-11-22T09:51:13.641Z,16.85
2017-11-22T09:53:41.406Z,23.70
2017-11-22T09:56:09.026Z,27.87
2017-11-22T09:58:36.564Z,24.58
2017-11-22T10:01:04.140Z,20.95
2017-11-22T10:03:31.712Z,19.20
2017-11-22T10:05:59.289Z,19.02
2017-11-22T10:08:26.868Z,17.08
2017-11-22T10:10:54.444Z,19.33
2017-11-22T10:13:22.211Z,14.45
2017-11-22T10:15:49.981Z,21.37
2017-11-22T10:18:17.553Z,19.23
2017-11-22T10:20:51.571Z,27.10
2017-11-22T10:23:24.895Z,16.85
2017-11-22T10:25:52.501Z,19.50
2017-11-22T10:28:20.070Z,16.40
2017-11-22T10:30:47.660Z,13.48
2017-11-22T10:33:15.249Z,16.30
2017-11-22T10:35:42.825Z,18.83
2017-11-22T10:38:15.245Z,15.80
2017-11-22T10:40:42.818Z,20.35
2017-11-22T10:43:10.397Z,13.82
2017-11-22T10:45:38.045Z,21.25
2017-11-22T10:48:06.313Z,15.43
2017-11-22T10:50:34.070Z,18.75
2017-11-22T10:53:01.638Z,15.52
2017-11-22T10:55:29.218Z,18.08
2017-11-22T10:57:56.865Z,32.10
2017-11-22T11:00:24.441Z,28.02
2017-11-22T11:02:52.823Z,23.40
2017-11-22T11:05:20.402Z,19.42
2017-11-22T11:07:48.191Z,18.30
2017-11-22T11:10:16.354Z,23.38
2017-11-22T11:12:43.955Z,20.52
2017-11-22T11:15:11.561Z,14.85
2017-11-22T11:17:39.130Z,26.48
2017-11-22T11:20:07.849Z,20.48
2017-11-22T11:22:35.425Z,21.23
2017-11-22T11:25:03.001Z,15.35
2017-11-22T11:27:30.532Z,16.62
2017-11-22T11:29:58.073Z,19.15
2017-11-22T11:32:25.663Z,19.20
2017-11-22T11:34:53.214Z,23.40
2017-11-22T11:37:20.824Z,30.70
2017-11-22T11:39:48.412Z,41.03
2017-11-22T11:42:16.202Z,21.42
2017-11-22T11:44:43.809Z,16.65
2017-11-22T11:47:11.348Z,16.67
2017-11-22T11:49:38.974Z,10.25
2017-11-22T11:52:06.627Z,22.73
2017-11-22T11:54:34.162Z,13.93
2017-11-22T11:57:01.797Z,18.08
2017-11-22T11:59:29.369Z,17.67
2017-11-22T12:01:57.065Z,16.98
2017-11-22T12:04:24.592Z,20.73
2017-11-22T12:06:52.201Z,14.63
2017-11-22T12:09:19.736Z,10.73
2017-11-22T12:11:47.306Z,14.75
2017-11-22T12:14:15.993Z,14.95
2017-11-22T12:16:43.558Z,15.07
2017-11-22T12:19:11.198Z,10.98
2017-11-22T12:21:39.693Z,19.35
2017-11-22T12:24:08.158Z,15.07
2017-11-22T12:26:35.743Z,17.23
2017-11-22T12:29:03.334Z,11.43
2017-11-22T12:31:30.893Z,9.45
2017-11-22T12:33:58.463Z,16.52
2017-11-22T12:36:25.993Z,18.95
2017-11-22T12:38:53.573Z,19.58
2017-11-22T12:41:21.143Z,14.50
2017-11-22T12:43:48.751Z,12.25
2017-11-22T12:46:16.514Z,12.70
2017-11-22T12:48:44.085Z,15.98
2017-11-22T12:51:11.657Z,11.00
2017-11-22T12:53:39.222Z,11.38
2017-11-22T12:56:06.744Z,13.35
2017-11-22T12:58:35.150Z,9.05
2017-11-22T13:01:02.773Z,18.20
2017-11-22T13:03:30.355Z,10.32
2017-11-22T13:05:57.938Z,15.55
2017-11-22T13:08:25.515Z,14.77
2017-11-22T13:10:57.872Z,17.40
2017-11-22T13:13:25.448Z,12.13
2017-11-22T13:15:53.034Z,10.60
2017-11-22T13:18:20.619Z,17.65
2017-11-22T13:20:48.193Z,35.78
2017-11-22T13:23:15.770Z,23.87
2017-11-22T13:25:43.324Z,16.65
2017-11-22T13:28:10.879Z,25.00
2017-11-22T13:30:38.405Z,26.62
2017-11-22T13:33:05.950Z,48.53
2017-11-22T13:35:34.281Z,41.35
2017-11-22T13:38:01.877Z,25.40
2017-11-22T13:40:29.435Z,127.72
2017-11-22T13:42:57.054Z,36.10
2017-11-22T13:45:24.625Z,23.50
2017-11-22T13:47:52.226Z,24.20
2017-11-22T13:50:19.817Z,21.95
2017-11-22T13:52:47.394Z,20.60
2017-11-22T13:55:14.973Z,61.55
2017-11-22T13:57:42.630Z,44.10
2017-11-22T14:00:11.058Z,28.60
2017-11-22T14:02:39.381Z,67.47
2017-11-22T14:05:06.973Z,213.55
2017-11-22T14:07:34.577Z,52.58
2017-11-22T14:10:02.768Z,25.77
2017-11-22T14:12:30.392Z,26.58
2017-11-22T14:14:58.025Z,30.35
2017-11-22T14:17:25.618Z,31.73
2017-11-22T14:19:53.201Z,31.30
2017-11-22T14:22:20.874Z,26.60
2017-11-22T14:24:48.727Z,22.70
2017-11-22T14:27:16.316Z,29.05
2017-11-22T14:29:43.939Z,31.35
2017-11-22T14:32:11.480Z,22.92
2017-11-22T14:34:39.092Z,31.27
2017-11-22T14:37:06.771Z,28.87
2017-11-22T14:39:34.337Z,21.45
2017-11-22T14:42:01.938Z,22.25
2017-11-22T14:44:31.729Z,24.75
2017-11-22T14:47:00.120Z,19.45
2017-11-22T14:49:28.546Z,23.52
2017-11-22T14:51:56.913Z,22.60
2017-11-22T14:54:24.666Z,16.83
2017-11-22T14:56:52.271Z,16.23
2017-11-22T14:59:20.714Z,24.58
2017-11-22T15:01:48.294Z,23.92
2017-11-22T15:04:15.903Z,18.90
2017-11-22T15:06:43.539Z,13.82
2017-11-22T15:09:11.192Z,14.70
2017-11-22T15:11:38.786Z,23.90
2017-11-22T15:14:06.386Z,17.70
2017-11-22T15:16:33.968Z,20.27
2017-11-22T15:19:01.723Z,19.37
2017-11-22T15:21:29.279Z,31.08
2017-11-22T15:23:58.048Z,22.92
2017-11-22T15:26:25.673Z,23.23
2017-11-22T15:28:53.225Z,28.12
2017-11-22T15:31:20.818Z,27.77
2017-11-22T15:33:49.507Z,40.12
2017-11-22T15:36:17.134Z,39.55
2017-11-22T15:38:44.688Z,47.35
2017-11-22T15:41:12.288Z,56.10
2017-11-22T15:43:39.864Z,52.55
2017-11-22T15:46:07.654Z,38.42
2017-11-22T15:48:35.347Z,34.20
2017-11-22T15:51:02.961Z,35.80
2017-11-22T15:53:30.554Z,36.33
2017-11-22T15:55:58.140Z,49.05
2017-11-22T15:58:26.494Z,42.85
2017-11-22T16:00:54.258Z,43.42
2017-11-22T16:03:21.843Z,50.60
2017-11-22T16:05:49.449Z,46.35
2017-11-22T16:08:17.050Z,39.53
2017-11-22T16:10:44.602Z,44.47
2017-11-22T16:13:12.193Z,40.97
2017-11-22T16:15:39.791Z,40.33
2017-11-22T16:18:07.373Z,38.13
2017-11-22T16:20:34.974Z,44.60
2017-11-22T16:23:02.564Z,37.65
2017-11-22T16:25:30.137Z,41.03
2017-11-22T16:27:57.744Z,50.00
2017-11-22T16:30:25.326Z,40.85
2017-11-22T16:32:52.942Z,33.35
2017-11-22T16:35:20.534Z,41.65
2017-11-22T16:37:48.877Z,65.55
2017-11-22T16:40:16.506Z,50.05
2017-11-22T16:42:44.165Z,49.17
2017-11-22T16:45:11.878Z,80.78
2017-11-22T16:47:39.641Z,64.05
2017-11-22T16:50:07.394Z,63.20
2017-11-22T16:52:38.127Z,65.18
2017-11-22T16:55:19.476Z,55.50
2017-11-22T16:57:47.835Z,60.88
2017-11-22T17:00:19.917Z,76.80
2017-11-22T17:02:47.511Z,54.17
2017-11-22T17:05:15.795Z,40.38
2017-11-22T17:07:43.516Z,31.33
2017-11-22T17:10:11.132Z,32.85
2017-11-22T17:12:38.687Z,26.90
2017-11-22T17:15:06.328Z,30.83
2017-11-22T17:17:33.941Z,25.98
2017-11-22T17:20:01.548Z,28.27
2017-11-22T17:22:29.144Z,23.73
2017-11-22T17:24:56.729Z,40.03
2017-11-22T17:27:24.301Z,28.65
2017-11-22T17:29:51.834Z,33.17
2017-11-22T17:32:19.375Z,36.70
2017-11-22T17:34:47.696Z,33.15
2017-11-22T17:37:15.277Z,27.90
2017-11-22T17:39:42.967Z,32.30
2017-11-22T17:42:10.556Z,28.80
2017-11-22T17:44:38.097Z,33.58
2017-11-22T17:47:06.480Z,33.25
2017-11-22T17:49:34.135Z,27.42
2017-11-22T17:52:01.734Z,30.20
2017-11-22T17:54:29.323Z,27.23
2017-11-22T17:56:56.912Z,23.62
2017-11-22T17:59:24.453Z,25.08
2017-11-22T18:01:52.037Z,29.60
2017-11-22T18:04:19.633Z,29.05
2017-11-22T18:06:48.093Z,26.37
2017-11-22T18:09:16.478Z,31.58
2017-11-22T18:11:44.838Z,27.10
2017-11-22T18:14:13.163Z,22.75
2017-11-22T18:16:40.819Z,26.33
2017-11-22T18:19:08.410Z,33.42
2017-11-22T18:21:36.026Z,28.95
2017-11-22T18:24:03.634Z,27.30
2017-11-22T18:26:31.216Z,27.85
2017-11-22T18:28:58.789Z,28.45
2017-11-22T18:31:26.378Z,25.85
2017-11-22T18:33:53.966Z,26.77
2017-11-22T18:36:21.537Z,33.50
2017-11-22T18:38:49.128Z,74.37
2017-11-22T18:41:16.693Z,43.75
2017-11-22T18:43:45.043Z,35.88
2017-11-22T18:46:12.675Z,36.45
2017-11-22T18:48:40.258Z,28.60
2017-11-22T18:51:07.872Z,34.38
2017-11-22T18:53:35.428Z,36.15
2017-11-22T18:56:03.009Z,31.87
2017-11-22T18:58:30.644Z,29.35
2017-11-22T19:00:58.255Z,31.20
2017-11-22T19:03:25.858Z,29.15
2017-11-22T19:05:53.446Z,29.15
2017-11-22T19:08:21.077Z,28.75
2017-11-22T19:10:48.612Z,37.15
2017-11-22T19:13:16.198Z,28.70
2017-11-22T19:15:44.509Z,27.08
2017-11-22T19:18:12.110Z,28.95
2017-11-22T19:20:39.730Z,31.02
2017-11-22T19:23:07.311Z,28.70
2017-11-22T19:25:34.852Z,29.27
2017-11-22T19:28:02.445Z,34.88
2017-11-22T19:30:30.037Z,28.75
2017-11-22T19:32:57.654Z,33.00
2017-11-22T19:35:26.161Z,32.00
2017-11-22T19:37:54.049Z,38.72
2017-11-22T19:40:21.605Z,39.75
2017-11-22T19:42:49.945Z,35.28
2017-11-22T19:45:17.519Z,30.50
2017-11-22T19:47:45.098Z,34.75
2017-11-22T19:50:12.770Z,37.22
2017-11-22T19:52:40.383Z,35.03
2017-11-22T19:55:07.979Z,36.75
2017-11-22T19:57:35.533Z,34.33
2017-11-22T20:00:03.119Z,32.90
2017-11-22T20:02:31.558Z,25.25
2017-11-22T20:04:59.221Z,25.77
2017-11-22T20:07:38.658Z,29.85
2017-11-22T20:10:06.199Z,37.03
2017-11-22T20:12:33.790Z,36.13
2017-11-22T20:15:01.399Z,38.50
2017-11-22T20:17:29.009Z,40.55
2017-11-22T20:19:56.650Z,41.70
2017-11-22T20:22:24.232Z,37.70
2017-11-22T20:24:52.388Z,31.75
2017-11-22T20:27:20.181Z,26.20
2017-11-22T20:29:47.817Z,31.58
2017-11-22T20:32:16.357Z,30.20
2017-11-22T20:34:43.930Z,32.05
2017-11-22T20:37:11.518Z,25.25
2017-11-22T20:39:39.050Z,32.85
2017-11-22T20:42:06.626Z,42.55
2017-11-22T20:44:34.199Z,32.63
2017-11-22T20:47:01.830Z,27.90
2017-11-22T20:49:30.314Z,28.10
2017-11-22T20:51:57.897Z,28.87
2017-11-22T20:54:25.495Z,40.00
2017-11-22T20:56:53.071Z,26.65
2017-11-22T20:59:21.380Z,31.10
2017-11-22T21:01:49.073Z,23.12
2017-11-22T21:04:16.646Z,22.55
2017-11-22T21:06:44.218Z,32.20
2017-11-22T21:09:11.807Z,25.00
2017-11-22T21:11:39.700Z,23.98
2017-11-22T21:14:07.301Z,35.78
2017-11-22T21:16:34.938Z,21.25
2017-11-22T21:19:02.689Z,21.85
2017-11-22T21:21:30.253Z,23.83
2017-11-22T21:23:57.887Z,23.05
2017-11-22T21:26:25.470Z,32.08
2017-11-22T21:28:53.058Z,33.05
2017-11-22T21:31:20.682Z,25.90
2017-11-22T21:33:48.342Z,22.90
2017-11-22T21:36:15.926Z,24.75
2017-11-22T21:38:47.477Z,24.05
2017-11-22T21:41:15.889Z,29.48
2017-11-22T21:43:43.786Z,25.08
2017-11-22T21:46:11.481Z,25.55
2017-11-22T21:48:39.412Z,23.27
2017-11-22T21:51:07.002Z,25.67
2017-11-22T21:53:34.569Z,20.23
2017-11-22T21:56:02.268Z,20.58
2017-11-22T21:58:29.805Z,31.23
2017-11-22T22:00:57.387Z,25.70
2017-11-22T22:03:25.012Z,27.77
2017-11-22T22:05:52.594Z,21.90
2017-11-22T22:08:20.103Z,28.95
2017-11-22T22:10:47.690Z,32.88
2017-11-22T22:13:15.275Z,20.90
2017-11-22T22:15:42.845Z,28.70
2017-11-22T22:18:10.386Z,31.80
2017-11-22T22:20:37.975Z,31.20
2017-11-22T22:23:05.603Z,26.48
2017-11-22T22:25:33.222Z,31.70
2017-11-22T22:28:00.990Z,25.98
2017-11-22T22:30:28.699Z,31.60
2017-11-22T22:32:56.278Z,35.25
2017-11-22T22:35:23.814Z,36.15
2017-11-22T22:37:51.401Z,30.27
2017-11-22T22:40:20.129Z,33.65
2017-11-22T22:42:47.706Z,31.75
2017-11-22T22:45:15.582Z,31.35
2017-11-22T22:47:43.194Z,42.47
2017-11-22T22:50:10.777Z,28.20
2017-11-22T22:52:38.350Z,25.45
2017-11-22T22:55:05.885Z,38.90
2017-11-22T22:57:33.465Z,33.63
2017-11-22T23:00:01.036Z,33.20
2017-11-22T23:02:28.591Z,31.55
2017-11-22T23:04:56.198Z,29.87
2017-11-22T23:07:23.778Z,31.33
2017-11-22T23:09:51.385Z,37.08
2017-11-22T23:12:18.961Z,43.13
2017-11-22T23:14:46.537Z,29.70
2017-11-22T23:17:14.123Z,31.00
2017-11-22T23:19:41.707Z,34.75
2017-11-22T23:22:09.243Z,35.40
2017-11-22T23:24:36.834Z,36.17
2017-11-22T23:27:04.421Z,33.85
2017-11-22T23:29:32.014Z,34.03
2017-11-22T23:31:59.609Z,35.40
2017-11-22T23:34:27.178Z,38.67
2017-11-22T23:36:54.784Z,38.65
2017-11-22T23:39:22.368Z,30.73
2017-11-22T23:41:49.922Z,31.92
2017-11-22T23:44:17.509Z,31.33
2017-11-22T23:46:45.100Z,29.67
2017-11-22T23:49:12.850Z,33.67
2017-11-22T23:51:41.963Z,28.83
2017-11-22T23:54:10.585Z,36.42
2017-11-22T23:56:38.973Z,28.77
2017-11-22T23:59:06.614Z,37.22
